sensor_id;sensor_type;location;lat;lon;timestamp;P1;durP1;ratioP1;P2;durP2;ratioP2
17953;SDS011;9102;53.548;9.926;2023-11-21T00:00:57;53.45;;;15.00;;
17953;SDS011;9102;53.548;9.926;2023-11-21T00:03:26;53.95;;;15.93;;
17953;SDS011;9102;53.548;9.926;2023-11-21T00:05:53;47.30;;;14.57;;
17953;SDS011;9102;53.548;9.926;2023-11-21T00:08:21;46.63;;;14.63;;
17953;SDS011;9102;53.548;9.926;2023-11-21T00:10:48;40.35;;;13.50;;
17953;SDS011;9102;53.548;9.926;2023-11-21T00:13:16;33.28;;;12.18;;
17953;SDS011;9102;53.548;9.926;2023-11-21T00:15:43;34.03;;;12.43;;
17953;SDS011;9102;53.548;9.926;2023-11-21T00:18:09;38.05;;;12.77;;
17953;SDS011;9102;53.548;9.926;2023-11-21T00:20:36;35.53;;;13.45;;
17953;SDS011;9102;53.548;9.926;2023-11-21T00:23:03;36.42;;;12.57;;
17953;SDS011;9102;53.548;9.926;2023-11-21T00:25:31;32.75;;;12.30;;
17953;SDS011;9102;53.548;9.926;2023-11-21T00:27:58;27.85;;;11.60;;
17953;SDS011;9102;53.548;9.926;2023-11-21T00:30:26;31.70;;;11.35;;
17953;SDS011;9102;53.548;9.926;2023-11-21T00:32:53;24.20;;;10.73;;
17953;SDS011;9102;53.548;9.926;2023-11-21T00:35:20;22.23;;;9.15;;
17953;SDS011;9102;53.548;9.926;2023-11-21T00:37:47;25.33;;;9.90;;
17953;SDS011;9102;53.548;9.926;2023-11-21T00:40:14;23.75;;;9.60;;
17953;SDS011;9102;53.548;9.926;2023-11-21T00:42:45;20.42;;;9.68;;
17953;SDS011;9102;53.548;9.926;2023-11-21T00:45:13;19.75;;;9.43;;
17953;SDS011;9102;53.548;9.926;2023-11-21T00:47:40;22.52;;;10.60;;
17953;SDS011;9102;53.548;9.926;2023-11-21T00:50:07;18.60;;;8.82;;
17953;SDS011;9102;53.548;9.926;2023-11-21T00:52:35;21.05;;;9.75;;
17953;SDS011;9102;53.548;9.926;2023-11-21T00:55:01;26.70;;;11.35;;
17953;SDS011;9102;53.548;9.926;2023-11-21T00:57:28;23.95;;;10.38;;
17953;SDS011;9102;53.548;9.926;2023-11-21T00:59:56;24.60;;;11.48;;
17953;SDS011;9102;53.548;9.926;2023-11-21T01:02:23;30.33;;;12.57;;
17953;SDS011;9102;53.548;9.926;2023-11-21T01:04:50;30.10;;;13.07;;
17953;SDS011;9102;53.548;9.926;2023-11-21T01:07:17;32.30;;;12.93;;
17953;SDS011;9102;53.548;9.926;2023-11-21T01:09:45;28.05;;;12.98;;
17953;SDS011;9102;53.548;9.926;2023-11-21T01:12:12;31.25;;;14.05;;
17953;SDS011;9102;53.548;9.926;2023-11-21T01:14:39;29.20;;;13.25;;
17953;SDS011;9102;53.548;9.926;2023-11-21T01:17:07;33.17;;;14.00;;
17953;SDS011;9102;53.548;9.926;2023-11-21T01:19:34;32.35;;;13.90;;
17953;SDS011;9102;53.548;9.926;2023-11-21T01:22:00;33.17;;;14.15;;
17953;SDS011;9102;53.548;9.926;2023-11-21T01:24:28;39.33;;;14.88;;
17953;SDS011;9102;53.548;9.926;2023-11-21T01:26:55;44.55;;;17.33;;
17953;SDS011;9102;53.548;9.926;2023-11-21T01:29:22;39.88;;;15.93;;
17953;SDS011;9102;53.548;9.926;2023-11-21T01:31:49;36.05;;;15.68;;
17953;SDS011;9102;53.548;9.926;2023-11-21T01:34:18;40.13;;;15.70;;
17953;SDS011;9102;53.548;9.926;2023-11-21T01:36:46;37.60;;;15.48;;
17953;SDS011;9102;53.548;9.926;2023-11-21T01:39:13;43.88;;;15.93;;
17953;SDS011;9102;53.548;9.926;2023-11-21T01:41:41;38.75;;;16.70;;
17953;SDS011;9102;53.548;9.926;2023-11-21T01:44:10;40.63;;;16.15;;
17953;SDS011;9102;53.548;9.926;2023-11-21T01:46:38;37.00;;;15.05;;
17953;SDS011;9102;53.548;9.926;2023-11-21T01:49:05;38.42;;;15.48;;
17953;SDS011;9102;53.548;9.926;2023-11-21T01:51:33;33.95;;;15.60;;
17953;SDS011;9102;53.548;9.926;2023-11-21T01:54:00;31.25;;;14.70;;
17953;SDS011;9102;53.548;9.926;2023-11-21T01:56:30;30.08;;;14.32;;
17953;SDS011;9102;53.548;9.926;2023-11-21T01:58:57;29.80;;;13.88;;
17953;SDS011;9102;53.548;9.926;2023-11-21T02:01:24;32.20;;;14.20;;
17953;SDS011;9102;53.548;9.926;2023-11-21T02:03:51;27.95;;;14.00;;
17953;SDS011;9102;53.548;9.926;2023-11-21T02:06:18;29.50;;;13.55;;
17953;SDS011;9102;53.548;9.926;2023-11-21T02:08:48;27.73;;;13.05;;
17953;SDS011;9102;53.548;9.926;2023-11-21T02:11:15;24.65;;;12.50;;
17953;SDS011;9102;53.548;9.926;2023-11-21T02:13:44;26.35;;;11.98;;
17953;SDS011;9102;53.548;9.926;2023-11-21T02:16:12;24.25;;;11.90;;
17953;SDS011;9102;53.548;9.926;2023-11-21T02:18:40;23.73;;;11.13;;
17953;SDS011;9102;53.548;9.926;2023-11-21T02:21:07;20.95;;;10.85;;
17953;SDS011;9102;53.548;9.926;2023-11-21T02:23:36;20.95;;;10.57;;
17953;SDS011;9102;53.548;9.926;2023-11-21T02:26:07;18.60;;;10.43;;
17953;SDS011;9102;53.548;9.926;2023-11-21T02:28:34;19.15;;;10.25;;
17953;SDS011;9102;53.548;9.926;2023-11-21T02:31:01;16.63;;;9.30;;
17953;SDS011;9102;53.548;9.926;2023-11-21T02:33:29;15.55;;;8.60;;
17953;SDS011;9102;53.548;9.926;2023-11-21T02:35:59;15.13;;;8.48;;
17953;SDS011;9102;53.548;9.926;2023-11-21T02:38:25;14.80;;;8.70;;
17953;SDS011;9102;53.548;9.926;2023-11-21T02:40:54;13.90;;;7.40;;
17953;SDS011;9102;53.548;9.926;2023-11-21T02:43:23;12.55;;;7.55;;
17953;SDS011;9102;53.548;9.926;2023-11-21T02:45:50;10.90;;;7.00;;
17953;SDS011;9102;53.548;9.926;2023-11-21T02:48:17;12.95;;;7.60;;
17953;SDS011;9102;53.548;9.926;2023-11-21T02:50:44;13.98;;;8.32;;
17953;SDS011;9102;53.548;9.926;2023-11-21T02:53:11;13.35;;;7.82;;
17953;SDS011;9102;53.548;9.926;2023-11-21T02:55:37;15.80;;;7.57;;
17953;SDS011;9102;53.548;9.926;2023-11-21T02:58:05;14.35;;;7.63;;
17953;SDS011;9102;53.548;9.926;2023-11-21T03:00:32;12.15;;;7.00;;
17953;SDS011;9102;53.548;9.926;2023-11-21T03:02:59;17.20;;;8.10;;
17953;SDS011;9102;53.548;9.926;2023-11-21T03:05:26;12.57;;;7.10;;
17953;SDS011;9102;53.548;9.926;2023-11-21T03:07:54;13.43;;;7.60;;
17953;SDS011;9102;53.548;9.926;2023-11-21T03:10:20;12.63;;;6.50;;
17953;SDS011;9102;53.548;9.926;2023-11-21T03:12:48;16.48;;;7.22;;
17953;SDS011;9102;53.548;9.926;2023-11-21T03:15:16;11.98;;;6.90;;
17953;SDS011;9102;53.548;9.926;2023-11-21T03:17:43;13.90;;;7.03;;
17953;SDS011;9102;53.548;9.926;2023-11-21T03:20:10;13.48;;;7.30;;
17953;SDS011;9102;53.548;9.926;2023-11-21T03:22:38;13.60;;;6.90;;
17953;SDS011;9102;53.548;9.926;2023-11-21T03:25:05;15.15;;;7.40;;
17953;SDS011;9102;53.548;9.926;2023-11-21T03:27:35;11.60;;;6.90;;
17953;SDS011;9102;53.548;9.926;2023-11-21T03:30:04;13.80;;;7.15;;
17953;SDS011;9102;53.548;9.926;2023-11-21T03:32:33;11.85;;;7.22;;
17953;SDS011;9102;53.548;9.926;2023-11-21T03:35:00;14.02;;;7.32;;
17953;SDS011;9102;53.548;9.926;2023-11-21T03:37:28;13.98;;;6.88;;
17953;SDS011;9102;53.548;9.926;2023-11-21T03:39:55;12.57;;;7.35;;
17953;SDS011;9102;53.548;9.926;2023-11-21T03:42:22;13.25;;;7.43;;
17953;SDS011;9102;53.548;9.926;2023-11-21T03:44:50;12.65;;;7.18;;
17953;SDS011;9102;53.548;9.926;2023-11-21T03:47:17;15.35;;;7.13;;
17953;SDS011;9102;53.548;9.926;2023-11-21T03:49:45;10.10;;;6.43;;
17953;SDS011;9102;53.548;9.926;2023-11-21T03:52:12;12.35;;;6.85;;
17953;SDS011;9102;53.548;9.926;2023-11-21T03:54:39;13.70;;;7.40;;
17953;SDS011;9102;53.548;9.926;2023-11-21T03:57:06;12.10;;;7.75;;
17953;SDS011;9102;53.548;9.926;2023-11-21T03:59:32;13.00;;;7.78;;
17953;SDS011;9102;53.548;9.926;2023-11-21T04:01:59;11.50;;;7.20;;
17953;SDS011;9102;53.548;9.926;2023-11-21T04:04:26;11.50;;;7.05;;
17953;SDS011;9102;53.548;9.926;2023-11-21T04:06:54;15.77;;;8.32;;
17953;SDS011;9102;53.548;9.926;2023-11-21T04:09:21;12.70;;;7.82;;
17953;SDS011;9102;53.548;9.926;2023-11-21T04:11:50;13.73;;;7.72;;
17953;SDS011;9102;53.548;9.926;2023-11-21T04:14:17;14.43;;;7.57;;
17953;SDS011;9102;53.548;9.926;2023-11-21T04:16:43;14.65;;;7.40;;
17953;SDS011;9102;53.548;9.926;2023-11-21T04:19:10;12.40;;;7.63;;
17953;SDS011;9102;53.548;9.926;2023-11-21T04:21:39;15.48;;;7.38;;
17953;SDS011;9102;53.548;9.926;2023-11-21T04:24:09;12.13;;;7.10;;
17953;SDS011;9102;53.548;9.926;2023-11-21T04:26:36;12.25;;;6.93;;
17953;SDS011;9102;53.548;9.926;2023-11-21T04:29:03;14.15;;;7.43;;
17953;SDS011;9102;53.548;9.926;2023-11-21T04:31:30;14.30;;;7.40;;
17953;SDS011;9102;53.548;9.926;2023-11-21T04:33:57;12.02;;;7.03;;
17953;SDS011;9102;53.548;9.926;2023-11-21T04:36:24;14.38;;;7.88;;
17953;SDS011;9102;53.548;9.926;2023-11-21T04:38:51;14.18;;;7.80;;
17953;SDS011;9102;53.548;9.926;2023-11-21T04:41:19;13.80;;;7.57;;
17953;SDS011;9102;53.548;9.926;2023-11-21T04:43:46;14.68;;;7.68;;
17953;SDS011;9102;53.548;9.926;2023-11-21T04:46:13;15.02;;;7.72;;
17953;SDS011;9102;53.548;9.926;2023-11-21T04:48:40;17.27;;;8.38;;
17953;SDS011;9102;53.548;9.926;2023-11-21T04:51:07;17.80;;;8.18;;
17953;SDS011;9102;53.548;9.926;2023-11-21T04:53:33;15.10;;;8.57;;
17953;SDS011;9102;53.548;9.926;2023-11-21T04:56:01;18.23;;;8.60;;
17953;SDS011;9102;53.548;9.926;2023-11-21T04:58:29;14.52;;;8.27;;
17953;SDS011;9102;53.548;9.926;2023-11-21T05:00:57;15.23;;;8.60;;
17953;SDS011;9102;53.548;9.926;2023-11-21T05:03:24;15.90;;;8.48;;
17953;SDS011;9102;53.548;9.926;2023-11-21T05:05:51;13.85;;;7.93;;
17953;SDS011;9102;53.548;9.926;2023-11-21T05:08:17;17.13;;;8.50;;
17953;SDS011;9102;53.548;9.926;2023-11-21T05:10:45;17.48;;;7.93;;
17953;SDS011;9102;53.548;9.926;2023-11-21T05:13:12;14.68;;;8.00;;
17953;SDS011;9102;53.548;9.926;2023-11-21T05:15:43;13.88;;;8.07;;
17953;SDS011;9102;53.548;9.926;2023-11-21T05:18:10;13.75;;;8.60;;
17953;SDS011;9102;53.548;9.926;2023-11-21T05:20:38;14.27;;;7.78;;
17953;SDS011;9102;53.548;9.926;2023-11-21T05:23:05;13.23;;;8.05;;
17953;SDS011;9102;53.548;9.926;2023-11-21T05:25:33;13.27;;;7.60;;
17953;SDS011;9102;53.548;9.926;2023-11-21T05:28:00;12.98;;;7.43;;
17953;SDS011;9102;53.548;9.926;2023-11-21T05:30:27;13.25;;;8.05;;
17953;SDS011;9102;53.548;9.926;2023-11-21T05:32:56;14.95;;;8.18;;
17953;SDS011;9102;53.548;9.926;2023-11-21T05:35:22;12.18;;;7.18;;
17953;SDS011;9102;53.548;9.926;2023-11-21T05:37:49;17.30;;;7.82;;
17953;SDS011;9102;53.548;9.926;2023-11-21T05:40:16;15.20;;;8.43;;
17953;SDS011;9102;53.548;9.926;2023-11-21T05:42:43;13.35;;;7.65;;
17953;SDS011;9102;53.548;9.926;2023-11-21T05:45:10;13.65;;;7.57;;
17953;SDS011;9102;53.548;9.926;2023-11-21T05:47:37;12.10;;;7.43;;
17953;SDS011;9102;53.548;9.926;2023-11-21T05:50:07;14.43;;;8.05;;
17953;SDS011;9102;53.548;9.926;2023-11-21T05:52:39;13.80;;;8.23;;
17953;SDS011;9102;53.548;9.926;2023-11-21T05:55:07;12.90;;;7.60;;
17953;SDS011;9102;53.548;9.926;2023-11-21T05:57:34;15.13;;;8.05;;
17953;SDS011;9102;53.548;9.926;2023-11-21T06:00:03;13.73;;;8.32;;
17953;SDS011;9102;53.548;9.926;2023-11-21T06:02:36;15.23;;;7.65;;
17953;SDS011;9102;53.548;9.926;2023-11-21T06:05:04;16.05;;;7.88;;
17953;SDS011;9102;53.548;9.926;2023-11-21T06:07:34;15.27;;;7.30;;
17953;SDS011;9102;53.548;9.926;2023-11-21T06:10:01;13.55;;;8.15;;
17953;SDS011;9102;53.548;9.926;2023-11-21T06:12:31;12.38;;;7.78;;
17953;SDS011;9102;53.548;9.926;2023-11-21T06:15:01;12.98;;;7.22;;
17953;SDS011;9102;53.548;9.926;2023-11-21T06:17:30;13.05;;;8.30;;
17953;SDS011;9102;53.548;9.926;2023-11-21T06:19:57;13.02;;;7.72;;
17953;SDS011;9102;53.548;9.926;2023-11-21T06:22:24;14.23;;;7.78;;
17953;SDS011;9102;53.548;9.926;2023-11-21T06:24:52;13.52;;;8.13;;
17953;SDS011;9102;53.548;9.926;2023-11-21T06:27:19;12.27;;;7.50;;
17953;SDS011;9102;53.548;9.926;2023-11-21T06:29:46;13.45;;;7.82;;
17953;SDS011;9102;53.548;9.926;2023-11-21T06:32:13;13.50;;;7.50;;
17953;SDS011;9102;53.548;9.926;2023-11-21T06:34:41;15.85;;;8.30;;
17953;SDS011;9102;53.548;9.926;2023-11-21T06:37:08;17.48;;;9.32;;
17953;SDS011;9102;53.548;9.926;2023-11-21T06:39:35;13.25;;;7.78;;
17953;SDS011;9102;53.548;9.926;2023-11-21T06:42:04;16.27;;;8.25;;
17953;SDS011;9102;53.548;9.926;2023-11-21T06:44:32;13.85;;;7.85;;
17953;SDS011;9102;53.548;9.926;2023-11-21T06:47:00;14.20;;;7.82;;
17953;SDS011;9102;53.548;9.926;2023-11-21T06:49:27;16.83;;;8.65;;
17953;SDS011;9102;53.548;9.926;2023-11-21T06:51:54;17.73;;;8.40;;
17953;SDS011;9102;53.548;9.926;2023-11-21T06:54:21;15.52;;;7.97;;
17953;SDS011;9102;53.548;9.926;2023-11-21T06:56:48;13.10;;;7.75;;
17953;SDS011;9102;53.548;9.926;2023-11-21T06:59:16;13.90;;;7.75;;
17953;SDS011;9102;53.548;9.926;2023-11-21T07:01:43;15.05;;;8.70;;
17953;SDS011;9102;53.548;9.926;2023-11-21T07:04:10;15.40;;;8.65;;
17953;SDS011;9102;53.548;9.926;2023-11-21T07:06:36;14.52;;;8.75;;
17953;SDS011;9102;53.548;9.926;2023-11-21T07:09:03;12.63;;;7.82;;
17953;SDS011;9102;53.548;9.926;2023-11-21T07:11:30;15.07;;;8.55;;
17953;SDS011;9102;53.548;9.926;2023-11-21T07:13:57;13.43;;;7.60;;
17953;SDS011;9102;53.548;9.926;2023-11-21T07:16:26;13.02;;;8.00;;
17953;SDS011;9102;53.548;9.926;2023-11-21T07:18:52;21.42;;;8.75;;
17953;SDS011;9102;53.548;9.926;2023-11-21T07:21:20;14.02;;;7.72;;
17953;SDS011;9102;53.548;9.926;2023-11-21T07:23:47;14.02;;;8.30;;
17953;SDS011;9102;53.548;9.926;2023-11-21T07:26:13;13.68;;;8.07;;
17953;SDS011;9102;53.548;9.926;2023-11-21T07:28:40;16.05;;;8.55;;
17953;SDS011;9102;53.548;9.926;2023-11-21T07:31:07;13.32;;;7.15;;
17953;SDS011;9102;53.548;9.926;2023-11-21T07:33:35;15.98;;;7.55;;
17953;SDS011;9102;53.548;9.926;2023-11-21T07:36:04;12.70;;;7.75;;
17953;SDS011;9102;53.548;9.926;2023-11-21T07:38:31;14.55;;;7.60;;
17953;SDS011;9102;53.548;9.926;2023-11-21T07:40:59;14.15;;;7.03;;
17953;SDS011;9102;53.548;9.926;2023-11-21T07:43:26;14.68;;;7.25;;
17953;SDS011;9102;53.548;9.926;2023-11-21T07:45:59;11.15;;;6.65;;
17953;SDS011;9102;53.548;9.926;2023-11-21T07:48:27;12.52;;;6.93;;
17953;SDS011;9102;53.548;9.926;2023-11-21T07:50:56;12.80;;;7.28;;
17953;SDS011;9102;53.548;9.926;2023-11-21T07:53:23;14.00;;;7.85;;
17953;SDS011;9102;53.548;9.926;2023-11-21T07:55:50;13.88;;;7.40;;
17953;SDS011;9102;53.548;9.926;2023-11-21T07:58:17;11.93;;;6.93;;
17953;SDS011;9102;53.548;9.926;2023-11-21T08:00:44;15.25;;;7.07;;
17953;SDS011;9102;53.548;9.926;2023-11-21T08:03:13;13.07;;;7.25;;
17953;SDS011;9102;53.548;9.926;2023-11-21T08:05:40;13.50;;;6.63;;
17953;SDS011;9102;53.548;9.926;2023-11-21T08:08:08;15.90;;;7.47;;
17953;SDS011;9102;53.548;9.926;2023-11-21T08:10:35;11.38;;;6.75;;
17953;SDS011;9102;53.548;9.926;2023-11-21T08:13:02;10.35;;;6.25;;
17953;SDS011;9102;53.548;9.926;2023-11-21T08:15:29;13.10;;;6.40;;
17953;SDS011;9102;53.548;9.926;2023-11-21T08:17:57;9.68;;;5.90;;
17953;SDS011;9102;53.548;9.926;2023-11-21T08:20:23;10.77;;;6.88;;
17953;SDS011;9102;53.548;9.926;2023-11-21T08:22:50;9.05;;;5.88;;
17953;SDS011;9102;53.548;9.926;2023-11-21T08:25:19;9.93;;;5.68;;
17953;SDS011;9102;53.548;9.926;2023-11-21T08:27:46;10.10;;;5.63;;
17953;SDS011;9102;53.548;9.926;2023-11-21T08:30:13;14.80;;;6.00;;
17953;SDS011;9102;53.548;9.926;2023-11-21T08:32:41;9.13;;;5.75;;
17953;SDS011;9102;53.548;9.926;2023-11-21T08:35:08;9.70;;;5.53;;
17953;SDS011;9102;53.548;9.926;2023-11-21T08:37:36;9.10;;;5.05;;
17953;SDS011;9102;53.548;9.926;2023-11-21T08:40:04;8.07;;;5.10;;
17953;SDS011;9102;53.548;9.926;2023-11-21T08:42:35;9.88;;;5.03;;
17953;SDS011;9102;53.548;9.926;2023-11-21T08:45:02;8.02;;;5.13;;
17953;SDS011;9102;53.548;9.926;2023-11-21T08:47:31;10.55;;;5.18;;
17953;SDS011;9102;53.548;9.926;2023-11-21T08:49:57;8.05;;;4.70;;
17953;SDS011;9102;53.548;9.926;2023-11-21T08:52:24;8.77;;;4.80;;
17953;SDS011;9102;53.548;9.926;2023-11-21T08:54:51;7.70;;;4.00;;
17953;SDS011;9102;53.548;9.926;2023-11-21T08:57:21;7.43;;;4.32;;
17953;SDS011;9102;53.548;9.926;2023-11-21T08:59:49;7.07;;;4.13;;
17953;SDS011;9102;53.548;9.926;2023-11-21T09:02:20;6.50;;;4.32;;
17953;SDS011;9102;53.548;9.926;2023-11-21T09:04:48;8.93;;;4.68;;
17953;SDS011;9102;53.548;9.926;2023-11-21T09:07:15;7.80;;;4.38;;
17953;SDS011;9102;53.548;9.926;2023-11-21T09:09:45;8.18;;;4.18;;
17953;SDS011;9102;53.548;9.926;2023-11-21T09:12:12;6.38;;;3.83;;
17953;SDS011;9102;53.548;9.926;2023-11-21T09:14:39;6.50;;;3.55;;
17953;SDS011;9102;53.548;9.926;2023-11-21T09:17:07;7.22;;;4.20;;
17953;SDS011;9102;53.548;9.926;2023-11-21T09:19:36;6.35;;;3.88;;
17953;SDS011;9102;53.548;9.926;2023-11-21T09:22:03;7.05;;;4.05;;
17953;SDS011;9102;53.548;9.926;2023-11-21T09:24:31;7.22;;;4.07;;
17953;SDS011;9102;53.548;9.926;2023-11-21T09:26:58;9.25;;;4.70;;
17953;SDS011;9102;53.548;9.926;2023-11-21T09:29:25;9.70;;;4.82;;
17953;SDS011;9102;53.548;9.926;2023-11-21T09:31:52;6.85;;;4.30;;
17953;SDS011;9102;53.548;9.926;2023-11-21T09:34:21;9.40;;;4.88;;
17953;SDS011;9102;53.548;9.926;2023-11-21T09:36:48;9.15;;;4.72;;
17953;SDS011;9102;53.548;9.926;2023-11-21T09:39:15;9.05;;;4.95;;
17953;SDS011;9102;53.548;9.926;2023-11-21T09:41:43;6.10;;;4.20;;
17953;SDS011;9102;53.548;9.926;2023-11-21T09:44:14;8.15;;;4.13;;
17953;SDS011;9102;53.548;9.926;2023-11-21T09:46:44;6.80;;;4.28;;
17953;SDS011;9102;53.548;9.926;2023-11-21T09:49:14;7.32;;;4.25;;
17953;SDS011;9102;53.548;9.926;2023-11-21T09:51:45;7.55;;;3.58;;
17953;SDS011;9102;53.548;9.926;2023-11-21T09:54:14;6.28;;;3.67;;
17953;SDS011;9102;53.548;9.926;2023-11-21T09:56:42;6.75;;;3.65;;
17953;SDS011;9102;53.548;9.926;2023-11-21T09:59:10;8.50;;;4.00;;
17953;SDS011;9102;53.548;9.926;2023-11-21T10:01:40;4.95;;;3.00;;
17953;SDS011;9102;53.548;9.926;2023-11-21T10:04:08;4.50;;;2.83;;
17953;SDS011;9102;53.548;9.926;2023-11-21T10:06:37;9.30;;;4.25;;
17953;SDS011;9102;53.548;9.926;2023-11-21T10:09:06;5.35;;;3.17;;
17953;SDS011;9102;53.548;9.926;2023-11-21T10:11:36;5.50;;;3.25;;
17953;SDS011;9102;53.548;9.926;2023-11-21T10:14:06;7.63;;;3.63;;
17953;SDS011;9102;53.548;9.926;2023-11-21T10:16:37;5.03;;;3.28;;
17953;SDS011;9102;53.548;9.926;2023-11-21T10:19:05;6.10;;;3.17;;
17953;SDS011;9102;53.548;9.926;2023-11-21T10:21:32;5.93;;;3.35;;
17953;SDS011;9102;53.548;9.926;2023-11-21T10:23:59;6.18;;;3.60;;
17953;SDS011;9102;53.548;9.926;2023-11-21T10:26:27;6.13;;;2.72;;
17953;SDS011;9102;53.548;9.926;2023-11-21T10:28:57;5.65;;;3.22;;
17953;SDS011;9102;53.548;9.926;2023-11-21T10:31:25;5.20;;;3.28;;
17953;SDS011;9102;53.548;9.926;2023-11-21T10:33:53;4.43;;;3.00;;
17953;SDS011;9102;53.548;9.926;2023-11-21T10:36:24;6.18;;;3.15;;
17953;SDS011;9102;53.548;9.926;2023-11-21T10:38:52;6.07;;;2.83;;
17953;SDS011;9102;53.548;9.926;2023-11-21T10:41:19;6.82;;;3.03;;
17953;SDS011;9102;53.548;9.926;2023-11-21T10:43:48;5.93;;;2.80;;
17953;SDS011;9102;53.548;9.926;2023-11-21T10:46:14;6.50;;;3.10;;
17953;SDS011;9102;53.548;9.926;2023-11-21T10:48:41;6.13;;;3.20;;
17953;SDS011;9102;53.548;9.926;2023-11-21T10:51:08;4.80;;;2.92;;
17953;SDS011;9102;53.548;9.926;2023-11-21T10:53:38;5.63;;;2.90;;
17953;SDS011;9102;53.548;9.926;2023-11-21T10:56:06;6.22;;;2.67;;
17953;SDS011;9102;53.548;9.926;2023-11-21T10:58:37;6.10;;;3.20;;
17953;SDS011;9102;53.548;9.926;2023-11-21T11:01:06;8.23;;;3.15;;
17953;SDS011;9102;53.548;9.926;2023-11-21T11:03:36;4.93;;;2.95;;
17953;SDS011;9102;53.548;9.926;2023-11-21T11:06:04;3.88;;;2.60;;
17953;SDS011;9102;53.548;9.926;2023-11-21T11:08:36;5.18;;;2.90;;
17953;SDS011;9102;53.548;9.926;2023-11-21T11:11:03;5.30;;;2.80;;
17953;SDS011;9102;53.548;9.926;2023-11-21T11:13:32;5.03;;;3.10;;
17953;SDS011;9102;53.548;9.926;2023-11-21T11:16:00;6.97;;;2.80;;
17953;SDS011;9102;53.548;9.926;2023-11-21T11:18:29;7.72;;;3.00;;
17953;SDS011;9102;53.548;9.926;2023-11-21T11:20:56;4.45;;;2.55;;
17953;SDS011;9102;53.548;9.926;2023-11-21T11:23:38;5.47;;;2.88;;
17953;SDS011;9102;53.548;9.926;2023-11-21T11:26:18;4.63;;;2.70;;
17953;SDS011;9102;53.548;9.926;2023-11-21T11:28:57;4.38;;;2.55;;
17953;SDS011;9102;53.548;9.926;2023-11-21T11:31:35;5.82;;;2.97;;
17953;SDS011;9102;53.548;9.926;2023-11-21T11:34:11;4.45;;;2.90;;
17953;SDS011;9102;53.548;9.926;2023-11-21T11:36:48;9.73;;;3.33;;
17953;SDS011;9102;53.548;9.926;2023-11-21T11:39:29;5.00;;;3.30;;
17953;SDS011;9102;53.548;9.926;2023-11-21T11:41:56;4.82;;;2.97;;
17953;SDS011;9102;53.548;9.926;2023-11-21T11:47:20;5.28;;;2.53;;
17953;SDS011;9102;53.548;9.926;2023-11-21T11:49:58;6.43;;;2.90;;
17953;SDS011;9102;53.548;9.926;2023-11-21T11:52:39;6.15;;;2.58;;
17953;SDS011;9102;53.548;9.926;2023-11-21T11:55:07;4.05;;;2.35;;
17953;SDS011;9102;53.548;9.926;2023-11-21T11:57:38;4.68;;;2.67;;
17953;SDS011;9102;53.548;9.926;2023-11-21T12:00:09;4.18;;;2.60;;
17953;SDS011;9102;53.548;9.926;2023-11-21T12:02:37;6.78;;;3.10;;
17953;SDS011;9102;53.548;9.926;2023-11-21T12:05:10;5.47;;;2.90;;
17953;SDS011;9102;53.548;9.926;2023-11-21T12:07:45;5.38;;;2.85;;
17953;SDS011;9102;53.548;9.926;2023-11-21T12:10:16;6.70;;;3.17;;
17953;SDS011;9102;53.548;9.926;2023-11-21T12:12:47;7.05;;;3.38;;
17953;SDS011;9102;53.548;9.926;2023-11-21T12:15:15;5.40;;;2.70;;
17953;SDS011;9102;53.548;9.926;2023-11-21T12:17:42;6.88;;;2.67;;
17953;SDS011;9102;53.548;9.926;2023-11-21T12:20:12;5.15;;;2.75;;
17953;SDS011;9102;53.548;9.926;2023-11-21T12:22:43;5.53;;;2.85;;
17953;SDS011;9102;53.548;9.926;2023-11-21T12:25:12;6.53;;;2.97;;
17953;SDS011;9102;53.548;9.926;2023-11-21T12:27:41;5.40;;;2.78;;
17953;SDS011;9102;53.548;9.926;2023-11-21T12:30:10;5.78;;;3.28;;
17953;SDS011;9102;53.548;9.926;2023-11-21T12:32:40;5.03;;;2.97;;
17953;SDS011;9102;53.548;9.926;2023-11-21T12:35:08;6.18;;;3.15;;
17953;SDS011;9102;53.548;9.926;2023-11-21T12:37:37;4.05;;;3.05;;
17953;SDS011;9102;53.548;9.926;2023-11-21T12:40:05;7.78;;;3.22;;
17953;SDS011;9102;53.548;9.926;2023-11-21T12:42:36;5.88;;;3.10;;
17953;SDS011;9102;53.548;9.926;2023-11-21T12:45:07;6.30;;;3.20;;
17953;SDS011;9102;53.548;9.926;2023-11-21T12:47:39;5.88;;;3.20;;
17953;SDS011;9102;53.548;9.926;2023-11-21T12:50:07;5.82;;;3.80;;
17953;SDS011;9102;53.548;9.926;2023-11-21T12:52:40;5.82;;;2.97;;
17953;SDS011;9102;53.548;9.926;2023-11-21T12:55:12;5.82;;;2.97;;
17953;SDS011;9102;53.548;9.926;2023-11-21T12:57:41;5.45;;;3.08;;
17953;SDS011;9102;53.548;9.926;2023-11-21T13:00:09;5.68;;;3.15;;
17953;SDS011;9102;53.548;9.926;2023-11-21T13:02:50;5.30;;;3.20;;
17953;SDS011;9102;53.548;9.926;2023-11-21T13:05:23;5.90;;;3.03;;
17953;SDS011;9102;53.548;9.926;2023-11-21T13:07:52;6.05;;;3.17;;
17953;SDS011;9102;53.548;9.926;2023-11-21T13:10:22;10.63;;;3.28;;
17953;SDS011;9102;53.548;9.926;2023-11-21T13:12:51;7.50;;;3.05;;
17953;SDS011;9102;53.548;9.926;2023-11-21T13:15:19;6.90;;;3.08;;
17953;SDS011;9102;53.548;9.926;2023-11-21T13:17:46;6.43;;;2.78;;
17953;SDS011;9102;53.548;9.926;2023-11-21T13:20:15;5.88;;;2.90;;
17953;SDS011;9102;53.548;9.926;2023-11-21T13:22:46;4.90;;;3.00;;
17953;SDS011;9102;53.548;9.926;2023-11-21T13:25:15;7.78;;;3.20;;
17953;SDS011;9102;53.548;9.926;2023-11-21T13:27:44;7.30;;;3.45;;
17953;SDS011;9102;53.548;9.926;2023-11-21T13:30:12;6.40;;;3.25;;
17953;SDS011;9102;53.548;9.926;2023-11-21T13:32:44;6.53;;;3.30;;
17953;SDS011;9102;53.548;9.926;2023-11-21T13:35:11;5.00;;;2.67;;
17953;SDS011;9102;53.548;9.926;2023-11-21T13:37:49;7.90;;;3.30;;
17953;SDS011;9102;53.548;9.926;2023-11-21T13:40:22;4.60;;;2.65;;
17953;SDS011;9102;53.548;9.926;2023-11-21T13:42:52;7.03;;;3.13;;
17953;SDS011;9102;53.548;9.926;2023-11-21T13:45:24;8.13;;;3.38;;
17953;SDS011;9102;53.548;9.926;2023-11-21T13:47:53;8.05;;;3.45;;
17953;SDS011;9102;53.548;9.926;2023-11-21T13:50:22;5.68;;;3.50;;
17953;SDS011;9102;53.548;9.926;2023-11-21T13:52:54;5.68;;;3.38;;
17953;SDS011;9102;53.548;9.926;2023-11-21T13:55:22;6.07;;;3.30;;
17953;SDS011;9102;53.548;9.926;2023-11-21T13:57:50;4.05;;;2.95;;
17953;SDS011;9102;53.548;9.926;2023-11-21T14:00:17;7.28;;;3.42;;
17953;SDS011;9102;53.548;9.926;2023-11-21T14:03:02;6.20;;;3.50;;
17953;SDS011;9102;53.548;9.926;2023-11-21T14:05:33;7.30;;;3.13;;
17953;SDS011;9102;53.548;9.926;2023-11-21T14:08:00;5.03;;;2.47;;
17953;SDS011;9102;53.548;9.926;2023-11-21T14:10:32;6.88;;;3.05;;
17953;SDS011;9102;53.548;9.926;2023-11-21T14:13:05;5.75;;;3.53;;
17953;SDS011;9102;53.548;9.926;2023-11-21T14:15:32;4.82;;;2.90;;
17953;SDS011;9102;53.548;9.926;2023-11-21T14:18:03;7.18;;;2.92;;
17953;SDS011;9102;53.548;9.926;2023-11-21T14:20:33;5.57;;;2.83;;
17953;SDS011;9102;53.548;9.926;2023-11-21T14:23:02;5.53;;;3.17;;
17953;SDS011;9102;53.548;9.926;2023-11-21T14:25:29;5.15;;;2.85;;
17953;SDS011;9102;53.548;9.926;2023-11-21T14:27:58;4.93;;;2.40;;
17953;SDS011;9102;53.548;9.926;2023-11-21T14:30:25;5.00;;;2.83;;
17953;SDS011;9102;53.548;9.926;2023-11-21T14:32:54;7.57;;;3.03;;
17953;SDS011;9102;53.548;9.926;2023-11-21T14:35:21;5.10;;;3.00;;
17953;SDS011;9102;53.548;9.926;2023-11-21T14:37:48;5.60;;;3.25;;
17953;SDS011;9102;53.548;9.926;2023-11-21T14:40:14;7.97;;;3.25;;
17953;SDS011;9102;53.548;9.926;2023-11-21T14:42:43;5.18;;;2.95;;
17953;SDS011;9102;53.548;9.926;2023-11-21T14:45:13;6.70;;;2.90;;
17953;SDS011;9102;53.548;9.926;2023-11-21T14:47:44;5.13;;;2.80;;
17953;SDS011;9102;53.548;9.926;2023-11-21T14:50:19;5.20;;;2.92;;
17953;SDS011;9102;53.548;9.926;2023-11-21T14:53:13;4.78;;;2.63;;
17953;SDS011;9102;53.548;9.926;2023-11-21T14:55:39;3.05;;;2.17;;
17953;SDS011;9102;53.548;9.926;2023-11-21T14:58:19;5.22;;;2.90;;
17953;SDS011;9102;53.548;9.926;2023-11-21T15:00:53;4.35;;;2.55;;